Time;durP1;ratioP1;P1;durP2;ratioP2;P2;SDS_P1;SDS_P2;PMS_P1;PMS_P2;Temp;Humidity;BMP_temperature;BMP_pressure;BME280_temperature;BME280_humidity;BME280_pressure;Samples;Min_cycle;Max_cycle;Signal;HPM_P1;HPM_P2
2022/11/13 00:03:02;;;;;;;4.28;1.50;;;;;;;8.14;62.98;93421.16;5033620;28;20052;-76
2022/11/13 00:05:59;;;;;;;3.35;1.65;;;;;;;8.18;63.07;93427.47;5033201;28;20068;-76
2022/11/13 00:08:43;;;;;;;5.25;2.05;;;;;;;8.16;63.10;93420.94;5043190;28;20410;-76
2022/11/13 00:11:27;;;;;;;4.65;1.83;;;;;;;8.16;63.58;93426.16;5053406;28;20136;-76
2022/11/13 00:14:11;;;;;;;3.38;1.60;;;;;;;8.13;63.61;93425.59;5053074;28;20095;-76
2022/11/13 00:16:55;;;;;;;3.40;1.70;;;;;;;8.07;63.92;93423.97;5052950;28;20505;-76
2022/11/13 00:19:39;;;;;;;6.18;1.98;;;;;;;8.03;63.76;93425.50;5037811;28;20102;-76
2022/11/13 00:26:20;;;;;;;3.63;1.83;;;;;;;8.01;63.78;93424.19;5052947;28;20612;-76
2022/11/13 00:32:52;;;;;;;3.08;1.70;;;;;;;8.00;63.99;93428.59;5053165;28;20460;-76
2022/11/13 00:35:35;;;;;;;3.30;1.48;;;;;;;8.00;64.60;93428.59;5052759;28;20074;-76
2022/11/13 00:38:21;;;;;;;2.90;1.40;;;;;;;8.00;64.83;93417.41;5038302;28;20152;-76
2022/11/13 00:41:05;;;;;;;2.63;1.42;;;;;;;8.01;64.79;93416.34;5052605;28;20513;-76
2022/11/13 00:43:49;;;;;;;2.92;1.63;;;;;;;8.01;64.46;93411.91;5032825;28;20044;-76
2022/11/13 00:46:34;;;;;;;2.72;1.48;;;;;;;8.07;63.46;93418.75;5050029;28;20060;-76
2022/11/13 00:53:12;;;;;;;3.17;1.50;;;;;;;8.12;63.76;93420.63;5052866;28;20040;-76
2022/11/13 00:56:15;;;;;;;3.40;1.70;;;;;;;8.10;64.38;93422.69;5052699;28;20056;-76
2022/11/13 00:58:59;;;;;;;2.97;1.48;;;;;;;8.09;64.45;93418.53;5037429;28;20044;-76
2022/11/13 01:01:43;;;;;;;2.47;1.50;;;;;;;8.08;64.81;93419.53;5039701;28;20048;-76
2022/11/13 01:04:28;;;;;;;3.30;1.70;;;;;;;8.08;64.69;93417.75;5056915;28;20461;-76
2022/11/13 01:07:12;;;;;;;3.45;1.50;;;;;;;8.07;64.77;93416.16;5056616;28;20063;-76
2022/11/13 01:09:55;;;;;;;5.05;1.90;;;;;;;8.12;64.18;93416.19;5056604;28;20052;-77
2022/11/13 01:16:33;;;;;;;3.88;1.60;;;;;;;8.09;65.03;93405.47;5056355;28;20070;-76
2022/11/13 01:23:05;;;;;;;2.83;1.40;;;;;;;8.04;64.38;93406.22;5056612;28;20213;-76
2022/11/13 01:25:49;;;;;;;2.25;1.33;;;;;;;8.02;64.40;93402.31;5056406;28;20075;-76
2022/11/13 01:28:35;;;;;;;3.00;1.40;;;;;;;7.97;64.18;93405.66;5056165;28;20179;-76
2022/11/13 01:31:22;;;;;;;2.97;1.50;;;;;;;7.92;64.37;93405.59;5056198;28;20052;-76
2022/11/13 01:34:06;;;;;;;8.38;1.98;;;;;;;7.89;64.77;93411.28;5056268;28;20135;-76
2022/11/13 01:40:31;;;;;;;3.08;1.55;;;;;;;7.89;64.51;93400.88;5055880;28;20521;-78
2022/11/13 01:47:36;;;;;;;2.40;1.50;;;;;;;7.84;64.43;93393.78;5032548;28;20132;-77
2022/11/13 01:50:20;;;;;;;2.05;1.25;;;;;;;7.86;64.12;93390.94;5013883;28;20124;-77
2022/11/13 01:53:05;;;;;;;2.83;1.58;;;;;;;7.85;63.58;93389.34;5014003;28;20431;-77
2022/11/13 01:59:47;;;;;;;;;;;;;;;7.94;63.01;93390.47;5014226;28;20546;-77
2022/11/13 02:06:24;;;;;;;3.70;1.42;;;;;;;8.43;60.54;93384.38;5013626;28;20566;-77
2022/11/13 02:09:09;;;;;;;5.70;1.48;;;;;;;8.61;60.57;93385.81;5013818;28;20428;-77
2022/11/13 02:12:32;;;;;;;3.63;1.80;;;;;;;8.75;59.62;93382.50;5012565;28;20153;-77
2022/11/13 02:15:22;;;;;;;3.75;1.52;;;;;;;8.85;59.52;93381.78;5013614;28;20148;-77
2022/11/13 02:18:07;;;;;;;3.83;1.60;;;;;;;8.92;59.41;93384.16;5014003;28;20060;-77
2022/11/13 02:21:20;;;;;;;3.35;1.60;;;;;;;8.91;59.90;93385.97;5035224;28;20053;-77
2022/11/13 02:24:13;;;;;;;4.97;1.48;;;;;;;8.87;59.71;93387.53;5020124;28;20056;-77
2022/11/13 02:27:02;;;;;;;2.60;1.33;;;;;;;8.81;59.98;93383.31;5068464;28;20043;-76
2022/11/13 02:33:33;;;;;;;3.50;1.40;;;;;;;8.71;61.08;93371.00;5075061;28;20525;-77
2022/11/13 02:36:20;;;;;;;3.33;1.60;;;;;;;8.63;61.19;93368.88;5075186;28;20574;-77
2022/11/13 02:42:58;;;;;;;3.03;1.60;;;;;;;8.45;62.08;93370.06;5074733;28;20052;-77
2022/11/13 02:50:14;;;;;;;2.97;1.48;;;;;;;8.27;62.54;93365.19;5091716;28;20058;-77
2022/11/13 02:52:58;;;;;;;6.88;1.33;;;;;;;8.21;61.96;93360.97;5079537;28;20063;-77
2022/11/13 02:55:42;;;;;;;1.90;1.30;;;;;;;8.17;62.53;93357.28;5083925;28;20051;-77
2022/11/13 02:58:27;;;;;;;3.55;1.70;;;;;;;8.09;62.01;93350.72;5073437;28;20158;-77
2022/11/13 03:01:11;;;;;;;2.85;1.40;;;;;;;8.12;61.80;93358.03;5074237;28;20136;-77
2022/11/13 03:08:07;;;;;;;4.72;1.30;;;;;;;8.01;61.47;93354.56;5061391;28;20060;-77
2022/11/13 03:10:52;;;;;;;2.78;1.48;;;;;;;8.00;61.44;93360.81;5054074;28;20047;-77
2022/11/13 03:13:37;;;;;;;3.28;1.55;;;;;;;7.98;61.41;93360.28;5054154;28;20052;-77
2022/11/13 03:16:42;;;;;;;2.33;1.40;;;;;;;7.94;61.51;93369.63;5054432;28;20107;-76
2022/11/13 03:19:26;;;;;;;2.42;1.42;;;;;;;7.90;61.11;93358.09;5038985;28;20426;-77
2022/11/13 03:22:10;;;;;;;1.80;1.17;;;;;;;7.88;60.48;93358.38;5054078;28;20047;-76
2022/11/13 03:28:49;;;;;;;2.38;1.38;;;;;;;7.88;59.09;93349.75;5054272;28;20521;-77
2022/11/13 03:31:33;;;;;;;2.95;1.50;;;;;;;7.91;59.18;93354.50;5053939;28;20403;-76
2022/11/13 03:34:17;;;;;;;4.88;1.40;;;;;;;7.96;57.30;93351.13;5054006;28;20040;-77
2022/11/13 03:37:01;;;;;;;2.80;1.60;;;;;;;8.01;56.84;93354.56;5038683;28;20501;-77
2022/11/13 03:40:04;;;;;;;3.55;1.42;;;;;;;8.02;57.05;93353.53;5038711;28;20048;-78
2022/11/13 03:42:48;;;;;;;3.15;1.40;;;;;;;8.00;57.30;93357.44;5038517;28;20064;-76
2022/11/13 03:45:33;;;;;;;2.53;1.30;;;;;;;7.99;56.59;93354.00;5038843;28;20103;-76
2022/11/13 03:48:17;;;;;;;2.33;1.20;;;;;;;8.00;56.85;93360.81;5053095;28;20064;-76
2022/11/13 03:54:49;;;;;;;2.67;1.45;;;;;;;8.10;55.60;93363.50;5053683;28;20070;-77
2022/11/13 03:57:32;;;;;;;2.55;1.27;;;;;;;8.32;54.76;93360.00;5053255;28;20059;-77
2022/11/13 04:00:16;;;;;;;3.15;1.40;;;;;;;8.41;54.48;93355.94;5053188;28;20052;-76
2022/11/13 04:06:46;;;;;;;2.60;1.45;;;;;;;8.52;54.07;93360.19;5054057;28;20178;-77
2022/11/13 04:09:31;;;;;;;2.67;1.30;;;;;;;8.63;53.40;93362.88;5058059;28;20095;-76
2022/11/13 04:12:15;;;;;;;2.63;1.50;;;;;;;8.70;52.81;93358.19;5058310;28;20170;-75
2022/11/13 04:14:59;;;;;;;2.60;1.50;;;;;;;8.75;52.85;93356.38;5072995;28;20054;-78
2022/11/13 04:17:43;;;;;;;2.65;1.50;;;;;;;8.84;52.39;93350.69;5073009;28;20044;-77
2022/11/13 04:24:20;;;;;;;4.45;1.50;;;;;;;9.01;51.84;93353.91;5073294;28;20058;-77
2022/11/13 04:30:59;;;;;;;3.28;1.48;;;;;;;9.09;52.02;93350.03;5053105;28;20102;-76
2022/11/13 04:37:37;;;;;;;3.70;1.60;;;;;;;9.23;51.98;93332.84;5053139;28;20128;-77
2022/11/13 04:40:22;;;;;;;3.05;1.50;;;;;;;9.27;51.46;93340.94;5037784;28;20064;-76
2022/11/13 04:43:06;;;;;;;2.70;1.40;;;;;;;9.39;50.99;93338.91;5051509;28;20059;-76
2022/11/13 04:45:51;;;;;;;3.25;1.30;;;;;;;9.36;51.28;93334.97;5072639;28;20124;-76
2022/11/13 04:49:08;;;;;;;3.22;1.50;;;;;;;9.40;51.14;93344.91;5070963;28;20059;-76
2022/11/13 04:51:52;;;;;;;2.15;1.30;;;;;;;9.37;51.39;93341.00;5037400;28;20545;-77
2022/11/13 04:54:36;;;;;;;2.60;1.50;;;;;;;9.39;51.43;93338.91;5053105;28;20111;-76
2022/11/13 05:01:15;;;;;;;2.35;1.42;;;;;;;9.31;52.05;93331.56;5052503;28;20048;-76
2022/11/13 05:04:02;;;;;;;2.80;1.50;;;;;;;9.27;52.71;93330.50;5052658;28;20047;-76
2022/11/13 05:06:46;;;;;;;4.63;1.60;;;;;;;9.21;53.28;93332.31;5037627;28;20056;-76
2022/11/13 05:09:30;;;;;;;2.88;1.42;;;;;;;9.14;53.62;93321.31;5037419;28;20040;-77
2022/11/13 05:12:34;;;;;;;2.55;1.45;;;;;;;9.09;53.72;93326.50;5051547;28;20102;-76
2022/11/13 05:15:18;;;;;;;2.63;1.50;;;;;;;9.05;53.80;93336.72;5052501;28;20047;-76
2022/11/13 05:18:02;;;;;;;6.25;1.70;;;;;;;9.05;54.12;93328.88;5037419;28;20095;-77
2022/11/13 05:20:47;;;;;;;3.45;1.50;;;;;;;9.13;52.80;93332.81;5052487;28;20055;-76
2022/11/13 05:23:32;;;;;;;2.58;1.40;;;;;;;9.09;53.06;93327.28;5037456;28;20093;-76
2022/11/13 05:26:16;;;;;;;3.25;1.60;;;;;;;9.08;53.40;93322.34;5051474;28;20485;-76
2022/11/13 05:32:53;;;;;;;;;;;;;;;9.11;52.99;93332.28;5068267;28;20028;-77
2022/11/13 05:39:19;;;;;;;2.65;1.27;;;;;;;9.17;52.80;93326.03;5072545;28;20052;-77
2022/11/13 05:42:04;;;;;;;3.00;1.40;;;;;;;9.07;53.27;93325.97;5072277;28;20051;-76
2022/11/13 05:48:32;;;;;;;3.73;1.50;;;;;;;8.96;53.71;93330.38;5075485;28;20044;-77
2022/11/13 05:51:29;;;;;;;3.60;1.60;;;;;;;8.93;53.66;93333.50;5078216;28;20285;-76
2022/11/13 05:54:13;;;;;;;2.28;1.40;;;;;;;8.94;53.75;93322.81;5095929;28;20059;-76
2022/11/13 05:56:57;;;;;;;3.47;1.75;;;;;;;8.94;53.55;93335.88;5095946;28;20128;-77
2022/11/13 06:03:35;;;;;;;2.72;1.52;;;;;;;8.86;54.22;93346.78;5079804;28;20042;-77
2022/11/13 06:06:38;;;;;;;6.10;1.60;;;;;;;8.89;54.15;93342.88;5075354;28;20052;-76
2022/11/13 06:09:22;;;;;;;3.83;1.48;;;;;;;8.86;54.34;93343.41;5075670;28;20529;-77
2022/11/13 06:12:06;;;;;;;5.82;1.95;;;;;;;8.87;54.36;93352.78;5060268;28;20051;-77
2022/11/13 06:18:44;;;;;;;3.60;1.70;;;;;;;8.83;54.78;93349.13;5055569;28;20039;-76
2022/11/13 06:22:07;;;;;;;3.20;1.60;;;;;;;8.84;55.17;93343.66;5055154;28;20072;-76
2022/11/13 06:24:51;;;;;;;2.83;1.50;;;;;;;8.81;55.41;93348.59;5055176;28;20076;-76
2022/11/13 06:27:35;;;;;;;3.85;1.85;;;;;;;8.79;55.88;93346.25;5055399;28;20051;-77
2022/11/13 06:30:39;;;;;;;3.25;1.70;;;;;;;8.89;56.21;93358.56;5054109;28;20044;-77
2022/11/13 06:33:24;;;;;;;3.20;1.50;;;;;;;8.96;55.05;93356.50;5054967;28;20418;-77
2022/11/13 06:36:12;;;;;;;3.30;1.70;;;;;;;9.04;55.11;93365.69;5055016;28;20052;-77
2022/11/13 06:42:51;;;;;;;4.40;1.90;;;;;;;10.32;54.64;93374.59;5063287;28;20077;-76
2022/11/13 06:45:36;;;;;;;3.60;1.85;;;;;;;11.38;52.98;93371.22;5079694;28;20409;-76
2022/11/13 06:48:20;;;;;;;4.25;1.73;;;;;;;12.27;49.79;93366.78;5095032;28;20093;-77
2022/11/13 06:51:10;;;;;;;4.13;2.03;;;;;;;13.22;48.48;93371.69;5094671;28;20181;-76
2022/11/13 06:53:54;;;;;;;3.17;1.90;;;;;;;13.98;46.46;93375.19;5088205;28;20047;-77
2022/11/13 06:56:44;;;;;;;3.83;1.92;;;;;;;14.53;44.90;93374.66;5059340;28;20051;-77
2022/11/13 07:03:25;;;;;;;5.78;2.03;;;;;;;16.16;43.39;93377.91;5068136;28;20447;-78
2022/11/13 07:06:15;;;;;;;4.05;1.92;;;;;;;17.01;41.41;93391.25;5074860;28;20044;-78
2022/11/13 07:08:59;;;;;;;4.13;1.83;;;;;;;17.55;40.76;93381.34;5075162;28;20043;-79
2022/11/13 07:11:43;;;;;;;5.57;1.85;;;;;;;18.10;39.17;93375.56;5075224;28;20048;-78
2022/11/13 07:14:28;;;;;;;2.70;1.50;;;;;;;18.85;37.92;93383.31;5060062;28;20051;-78
2022/11/13 07:17:12;;;;;;;3.70;1.90;;;;;;;18.75;36.83;93394.22;5060257;28;20117;-78
2022/11/13 07:19:56;;;;;;;3.38;1.92;;;;;;;19.35;36.23;93395.97;5046252;28;20048;-78
2022/11/13 07:22:39;;;;;;;5.05;1.83;;;;;;;19.83;34.71;93390.63;5072670;28;20203;-78
2022/11/13 07:25:25;;;;;;;2.95;1.67;;;;;;;20.34;34.09;93386.81;5069694;28;20101;-78
2022/11/13 07:28:09;;;;;;;4.43;2.10;;;;;;;21.58;32.35;93395.97;5071363;28;20055;-78
2022/11/13 07:30:56;;;;;;;4.18;1.80;;;;;;;20.96;31.98;93406.50;5078395;28;20066;-80
2022/11/13 07:33:41;;;;;;;3.90;1.92;;;;;;;20.91;31.63;93414.69;5077638;28;20040;-80
2022/11/13 07:36:27;;;;;;;4.07;2.05;;;;;;;20.67;33.02;93411.94;5079657;28;20052;-80
2022/11/13 07:39:11;;;;;;;3.70;1.90;;;;;;;20.61;32.14;93426.56;5043242;28;20525;-81
2022/11/13 07:41:55;;;;;;;4.45;2.08;;;;;;;21.03;32.50;93431.78;5070643;28;20071;-80
2022/11/13 07:44:40;;;;;;;4.72;2.15;;;;;;;20.96;32.47;93433.13;5067925;28;20079;-79
2022/11/13 07:47:24;;;;;;;4.25;2.00;;;;;;;21.50;30.53;93434.16;5047443;28;20067;-79
2022/11/13 07:50:08;;;;;;;6.05;2.00;;;;;;;20.65;32.37;93446.06;5072833;28;20047;-78
2022/11/13 07:56:39;;;;;;;3.92;1.95;;;;;;;21.52;31.20;93451.34;5077149;28;20590;-80
2022/11/13 07:59:23;;;;;;;6.32;2.10;;;;;;;20.80;33.62;93461.44;5056948;28;20097;-80
2022/11/13 08:05:48;;;;;;;5.30;2.13;;;;;;;21.68;32.13;93448.81;5057437;28;20171;-79
2022/11/13 08:08:34;;;;;;;8.85;2.20;;;;;;;20.47;35.31;93456.03;5067823;28;20047;-81
2022/11/13 08:11:38;;;;;;;5.30;2.22;;;;;;;20.05;35.29;93451.44;5075023;28;20090;-78
2022/11/13 08:14:22;;;;;;;6.53;2.45;;;;;;;20.71;35.00;93450.84;5077001;28;20133;-79
2022/11/13 08:17:06;;;;;;;6.20;2.13;;;;;;;21.13;33.54;93452.69;5060229;28;20052;-80
2022/11/13 08:23:42;;;;;;;4.80;2.20;;;;;;;20.48;34.78;93470.88;5071681;28;20555;-80
2022/11/13 08:26:26;;;;;;;6.95;2.20;;;;;;;19.07;37.88;93477.84;5054529;28;20167;-78
2022/11/13 08:29:10;;;;;;;3.80;2.00;;;;;;;18.88;38.69;93488.78;5052714;28;20056;-79
2022/11/13 08:31:54;;;;;;;6.18;2.40;;;;;;;18.52;39.00;93487.19;5073550;28;20051;-79
2022/11/13 08:34:57;;;;;;;5.30;2.20;;;;;;;17.65;41.93;93492.25;5068618;28;20055;-79
2022/11/13 08:37:41;;;;;;;7.55;2.33;;;;;;;17.38;43.16;93487.94;5055477;28;20055;-79
2022/11/13 08:40:25;;;;;;;5.50;2.33;;;;;;;17.35;43.20;93482.47;5063223;28;20090;-79
2022/11/13 08:47:03;;;;;;;6.18;2.70;;;;;;;15.98;45.69;93474.69;5087541;28;20516;-79
2022/11/13 08:54:19;;;;;;;6.53;2.63;;;;;;;16.52;43.70;93449.22;5078950;28;20117;-79
2022/11/13 08:57:03;;;;;;;4.90;2.45;;;;;;;15.68;45.02;93450.44;5073073;28;20055;-80
2022/11/13 08:59:48;;;;;;;5.93;2.10;;;;;;;15.37;47.05;93452.84;5064600;28;20051;-80
2022/11/13 09:06:25;;;;;;;6.57;2.30;;;;;;;15.60;47.14;93465.09;5056544;28;20044;-80
2022/11/13 09:13:05;;;;;;;4.93;2.50;;;;;;;15.36;45.46;93467.13;5076680;28;20391;-80
2022/11/13 09:16:28;;;;;;;5.10;2.60;;;;;;;14.76;48.21;93458.09;5059172;28;20059;-80
2022/11/13 09:19:12;;;;;;;6.75;2.60;;;;;;;15.02;47.40;93468.25;5075872;28;20394;-79
2022/11/13 09:21:57;;;;;;;6.20;2.50;;;;;;;14.95;47.14;93467.81;5077154;28;20450;-80
2022/11/13 09:25:00;;;;;;;5.40;2.40;;;;;;;14.97;47.22;93469.09;5075670;28;20036;-80
2022/11/13 09:27:54;;;;;;;4.72;2.28;;;;;;;14.07;48.52;93478.00;5061435;28;20044;-79
2022/11/13 09:30:39;;;;;;;6.50;2.60;;;;;;;13.56;51.90;93486.53;5062230;28;20722;-79
2022/11/13 09:33:23;;;;;;;7.32;2.72;;;;;;;14.27;51.02;93475.09;5076977;28;20134;-79
2022/11/13 09:39:53;;;;;;;6.25;2.65;;;;;;;14.64;49.32;93463.03;5094549;28;20422;-80
2022/11/13 09:42:40;;;;;;;8.88;2.75;;;;;;;14.20;50.82;93451.00;5080372;28;20398;-79
2022/11/13 10:00:38;;;;;;;8.70;3.28;;;;;;;15.38;52.05;93449.94;5079913;28;20069;-80
2022/11/13 10:07:04;;;;;;;7.15;3.10;;;;;;;14.57;49.11;93441.53;5078457;28;20052;-80
2022/11/13 10:10:20;;;;;;;7.65;2.80;;;;;;;14.83;49.58;93444.53;5072825;28;20133;-80
2022/11/13 10:13:11;;;;;;;10.82;3.30;;;;;;;14.78;49.52;93442.78;5057874;28;20082;-79
2022/11/13 10:16:19;;;;;;;8.50;3.25;;;;;;;14.61;48.93;93445.16;5068486;28;20040;-80
2022/11/13 10:19:33;;;;;;;7.82;3.20;;;;;;;14.54;48.50;93431.53;5083318;28;20039;-80
2022/11/13 10:22:32;;;;;;;6.00;3.20;;;;;;;14.68;48.95;93434.25;5099938;28;20181;-80
2022/11/13 10:25:27;;;;;;;7.03;3.13;;;;;;;14.62;47.62;93425.66;5058640;28;20068;-80
2022/11/13 10:32:32;;;;;;;7.10;3.22;;;;;;;14.67;50.05;93416.88;5098968;28;20039;-80
2022/11/13 10:35:40;;;;;;;8.80;3.05;;;;;;;14.24;51.21;93415.13;5055847;28;20039;-81
2022/11/13 10:38:43;;;;;;;7.55;3.63;;;;;;;13.05;54.06;93416.81;5083460;28;20051;-80
2022/11/13 10:41:28;;;;;;;8.13;3.47;;;;;;;12.58;56.42;93403.28;5097810;28;20054;-80
2022/11/13 10:44:49;;;;;;;6.15;3.05;;;;;;;12.80;55.90;93402.06;5100119;28;20527;-79
2022/11/13 10:47:47;;;;;;;8.43;2.97;;;;;;;12.59;55.60;93393.59;5070269;28;20035;-79
2022/11/13 10:50:32;;;;;;;6.43;3.30;;;;;;;12.28;55.73;93409.56;5075529;28;20043;-80
2022/11/13 10:53:17;;;;;;;7.22;3.97;;;;;;;12.21;56.07;93393.34;5072671;28;20055;-82
2022/11/13 10:56:13;;;;;;;8.38;3.72;;;;;;;12.01;56.78;93396.91;5062656;28;20047;-80
2022/11/13 10:59:18;;;;;;;9.63;3.10;;;;;;;12.02;57.32;93391.38;5058189;28;20071;-79
2022/11/13 11:02:16;;;;;;;8.38;3.83;;;;;;;12.37;56.34;93383.53;5086436;28;20077;-81
2022/11/13 11:05:05;;;;;;;6.60;3.08;;;;;;;12.27;56.49;93385.16;5076067;28;20043;-79
2022/11/13 11:08:10;;;;;;;7.70;3.72;;;;;;;12.52;55.46;93367.66;5074091;28;20093;-80
2022/11/13 11:14:20;;;;;;;6.75;3.03;;;;;;;12.82;55.18;93347.41;5057974;28;20059;-81
2022/11/13 11:17:05;;;;;;;6.97;3.53;;;;;;;12.99;55.91;93346.94;5060303;28;20525;-80
2022/11/13 11:20:26;;;;;;;7.93;3.10;;;;;;;13.65;54.07;93342.78;5059850;28;20573;-80
2022/11/13 11:23:53;;;;;;;7.38;3.67;;;;;;;13.83;53.26;93344.63;5073224;28;20042;-81
2022/11/13 11:27:04;;;;;;;9.45;3.08;;;;;;;14.02;52.79;93334.09;5081648;28;20517;-81
2022/11/13 11:30:03;;;;;;;6.78;3.25;;;;;;;14.31;52.53;93312.81;5061334;28;20118;-80
2022/11/13 11:36:28;;;;;;;6.50;2.88;;;;;;;13.38;54.32;93299.47;5074612;28;20043;-80
2022/11/13 11:43:29;;;;;;;7.55;3.33;;;;;;;13.44;55.33;93285.19;5061006;28;20051;-80
2022/11/13 11:46:19;;;;;;;8.75;3.38;;;;;;;13.06;57.48;93285.13;5058245;28;20406;-80
2022/11/13 11:49:25;;;;;;;10.70;3.22;;;;;;;13.04;56.29;93274.09;5063106;28;20447;-81
2022/11/13 11:52:31;;;;;;;5.68;3.10;;;;;;;12.95;57.32;93275.78;5063936;28;20082;-83
2022/11/13 11:55:28;;;;;;;8.35;3.35;;;;;;;13.06;57.73;93266.72;5054517;28;20398;-81
2022/11/13 11:58:27;;;;;;;7.30;3.45;;;;;;;13.12;56.77;93257.69;5078148;28;20050;-83
2022/11/13 12:01:36;;;;;;;6.97;2.95;;;;;;;12.80;57.81;93257.56;5063573;28;20043;-80
2022/11/13 12:04:53;;;;;;;7.00;3.33;;;;;;;13.09;56.33;93245.13;5059604;28;20044;-80
2022/11/13 12:08:11;;;;;;;7.50;3.33;;;;;;;12.60;57.95;93230.44;5069997;28;20046;-80
2022/11/13 12:11:06;;;;;;;7.60;2.88;;;;;;;12.69;58.13;93214.88;5093162;28;20093;-81
2022/11/13 12:14:22;;;;;;;10.15;2.72;;;;;;;12.78;56.63;93218.44;5094879;28;20121;-80
2022/11/13 12:17:15;;;;;;;5.70;2.83;;;;;;;12.27;57.79;93211.91;5067873;28;20420;-80
2022/11/13 12:20:20;;;;;;;6.88;3.08;;;;;;;12.79;57.00;93208.69;5064930;28;20090;-80
2022/11/13 12:23:25;;;;;;;5.32;2.72;;;;;;;13.04;56.67;93197.88;5062574;28;20069;-79
2022/11/13 12:26:29;;;;;;;6.38;2.78;;;;;;;13.29;56.52;93198.63;5080947;28;20038;-80
2022/11/13 12:29:19;;;;;;;4.13;2.08;;;;;;;12.77;54.20;93187.19;5077477;28;20054;-79
2022/11/13 12:32:15;;;;;;;4.95;2.58;;;;;;;13.03;55.56;93182.38;5062628;28;20113;-80
2022/11/13 12:35:23;;;;;;;10.25;4.68;;;;;;;13.05;53.50;93175.78;5070622;28;20057;-79
2022/11/13 12:38:07;;;;;;;26.13;11.68;;;;;;;13.11;53.71;93176.50;5054830;28;20043;-79
2022/11/13 12:41:06;;;;;;;50.72;32.58;;;;;;;13.53;52.79;93180.91;5069324;28;20528;-80
2022/11/13 12:44:23;;;;;;;6.68;2.63;;;;;;;13.24;53.65;93172.34;5072428;28;20538;-79
2022/11/13 12:47:08;;;;;;;13.05;7.38;;;;;;;13.33;52.98;93168.84;5090729;28;20043;-80
2022/11/13 12:50:01;;;;;;;11.05;6.15;;;;;;;13.48;52.77;93167.03;5063728;28;20043;-80
2022/11/13 12:53:09;;;;;;;7.28;3.28;;;;;;;13.91;52.30;93165.00;5077138;28;20564;-77
2022/11/13 12:55:58;;;;;;;3.75;1.95;;;;;;;13.94;51.59;93168.94;5074655;28;20047;-81
2022/11/13 12:58:56;;;;;;;7.90;3.00;;;;;;;13.37;53.48;93171.66;5050586;28;20067;-81
2022/11/13 13:01:47;;;;;;;8.43;4.00;;;;;;;13.25;53.42;93158.16;5084581;28;20069;-80
2022/11/13 13:05:19;;;;;;;5.87;2.63;;;;;;;13.51;52.88;93161.22;5082585;28;20039;-80
2022/11/13 13:08:38;;;;;;;11.55;5.72;;;;;;;13.88;52.45;93155.06;5028541;28;20125;-79
2022/11/13 13:11:59;;;;;;;7.75;3.90;;;;;;;13.61;53.52;93149.75;5077960;28;20550;-77
2022/11/13 13:15:28;;;;;;;5.30;2.53;;;;;;;13.74;52.76;93162.16;5094586;28;20406;-80
2022/11/13 13:18:31;;;;;;;10.07;4.13;;;;;;;13.07;54.49;93157.88;5080130;28;20553;-79
2022/11/13 13:21:17;;;;;;;8.52;3.63;;;;;;;12.84;55.87;93156.88;5069718;28;20043;-78
2022/11/13 13:24:25;;;;;;;6.65;2.88;;;;;;;13.42;53.58;93145.31;5080163;28;20075;-79
2022/11/13 13:27:27;;;;;;;7.57;2.60;;;;;;;14.12;52.12;93143.59;5062775;28;20097;-79
2022/11/13 13:30:35;;;;;;;7.15;2.47;;;;;;;13.89;51.78;93145.31;5078266;28;20048;-78
2022/11/13 13:33:29;;;;;;;6.88;2.70;;;;;;;14.37;52.63;93134.44;5061545;28;20043;-79
2022/11/13 13:36:35;;;;;;;7.07;2.88;;;;;;;13.93;48.09;93152.34;5076687;28;20043;-79
2022/11/13 13:39:38;;;;;;;5.65;2.60;;;;;;;13.89;51.03;93140.84;5058603;28;20047;-79
2022/11/13 13:42:41;;;;;;;;;;;;;;;13.23;51.15;93144.50;5070610;28;20038;-80
2022/11/13 13:45:37;;;;;;;6.63;3.65;;;;;;;12.86;52.09;93135.59;5065555;28;19958;-79
2022/11/13 13:48:25;;;;;;;8.65;3.00;;;;;;;13.22;54.47;93127.19;5071808;28;20055;-79
2022/11/13 13:51:31;;;;;;;7.55;3.55;;;;;;;13.39;52.98;93143.22;5066743;28;20072;-78
2022/11/13 13:54:20;;;;;;;6.45;2.65;;;;;;;13.41;50.89;93130.59;5062866;28;20525;-78
2022/11/13 13:57:15;;;;;;;16.90;7.65;;;;;;;13.68;53.06;93137.78;5080062;28;20055;-77
2022/11/13 14:00:00;;;;;;;13.13;5.00;;;;;;;13.79;51.35;93127.84;5061355;28;20044;-79
2022/11/13 14:02:51;;;;;;;9.55;4.15;;;;;;;13.53;53.66;93128.31;5058120;28;20055;-79
2022/11/13 14:05:36;;;;;;;4.88;2.17;;;;;;;13.09;51.30;93129.47;5073866;28;20035;-81
2022/11/13 14:08:25;;;;;;;5.95;2.65;;;;;;;13.43;52.52;93120.56;5050719;28;21054;-79
2022/11/13 14:11:25;;;;;;;6.35;2.88;;;;;;;13.56;53.97;93111.16;5074389;28;20395;-79
2022/11/13 14:18:12;;;;;;;5.53;2.55;;;;;;;13.40;50.82;93118.50;5057364;28;20052;-79
2022/11/13 14:20:58;;;;;;;5.53;2.60;;;;;;;13.57;51.78;93110.06;5081049;28;20082;-78
2022/11/13 14:23:47;;;;;;;5.50;2.60;;;;;;;13.50;53.07;93110.44;5066477;28;20074;-78
2022/11/13 14:30:24;;;;;;;5.70;2.88;;;;;;;13.21;54.22;93117.72;5057927;28;20442;-78
2022/11/13 14:33:13;;;;;;;4.60;2.50;;;;;;;13.07;52.26;93105.31;5077392;28;20409;-78
2022/11/13 14:39:50;;;;;;;5.10;2.55;;;;;;;13.09;52.92;93105.81;5083724;28;20052;-79
2022/11/13 14:42:42;;;;;;;5.18;2.60;;;;;;;12.90;52.67;93084.81;5057592;28;20043;-79
2022/11/13 14:45:30;;;;;;;5.93;3.05;;;;;;;13.25;53.85;93079.28;5078023;28;20173;-79
2022/11/13 14:48:26;;;;;;;4.95;2.50;;;;;;;13.77;51.42;93077.38;5074255;28;20048;-79
2022/11/13 14:51:40;;;;;;;7.60;2.40;;;;;;;13.93;50.63;93067.34;5076743;28;20106;-79
2022/11/13 14:58:11;;;;;;;6.43;2.50;;;;;;;14.54;49.14;93065.34;5062222;28;20047;-79
2022/11/13 15:00:57;;;;;;;4.15;2.30;;;;;;;15.56;45.21;93078.84;5075253;28;20043;-78
2022/11/13 15:03:45;;;;;;;5.00;2.58;;;;;;;14.50;46.83;93075.72;5070883;28;20051;-77
2022/11/13 15:06:38;;;;;;;8.60;2.60;;;;;;;13.88;49.45;93081.38;5072613;28;20043;-78
2022/11/13 15:09:23;;;;;;;5.15;2.65;;;;;;;13.11;53.06;93074.75;5064794;28;20471;-78
2022/11/13 15:12:10;;;;;;;6.57;2.80;;;;;;;12.75;54.24;93084.25;5082371;28;20101;-79
2022/11/13 15:14:55;;;;;;;5.20;2.90;;;;;;;12.48;55.17;93083.81;5076761;28;20047;-79
2022/11/13 15:17:42;;;;;;;9.00;2.65;;;;;;;12.28;56.09;93084.84;5071955;28;20047;-78
2022/11/13 15:20:29;;;;;;;5.15;2.53;;;;;;;12.03;55.13;93079.91;5057297;28;20132;-77
2022/11/13 15:23:15;;;;;;;8.05;2.58;;;;;;;11.78;56.43;93073.84;5069961;28;20102;-79
2022/11/13 15:25:59;;;;;;;6.18;2.53;;;;;;;11.64;57.07;93072.91;5069276;28;20139;-78
2022/11/13 15:28:43;;;;;;;4.57;2.30;;;;;;;11.59;56.30;93067.72;5044598;28;20089;-78
2022/11/13 15:31:38;;;;;;;5.20;2.78;;;;;;;11.48;57.77;93066.28;5058113;28;20122;-78
2022/11/13 15:34:22;;;;;;;7.72;3.13;;;;;;;11.37;58.69;93063.75;5066087;28;20035;-78
2022/11/13 15:37:12;;;;;;;5.97;2.70;;;;;;;11.25;58.69;93058.09;5071970;28;20154;-78
2022/11/13 15:39:56;;;;;;;4.68;2.63;;;;;;;11.19;58.73;93059.19;5055111;28;20083;-78
2022/11/13 15:42:40;;;;;;;8.85;2.85;;;;;;;11.16;59.45;93050.03;5057724;28;20075;-79
2022/11/13 15:45:24;;;;;;;6.78;2.83;;;;;;;11.12;59.56;93053.47;5072157;28;20770;-78
2022/11/13 15:48:09;;;;;;;5.22;2.45;;;;;;;10.99;60.43;93042.59;5057543;28;20101;-79
2022/11/13 15:50:53;;;;;;;4.97;2.60;;;;;;;10.87;60.75;93046.63;5065247;28;20484;-79
2022/11/13 15:53:37;;;;;;;5.30;3.25;;;;;;;10.74;61.77;93058.47;5033869;28;20091;-79
2022/11/13 15:56:23;;;;;;;5.53;3.10;;;;;;;10.62;61.85;93061.44;5054923;28;20044;-78
2022/11/13 15:59:12;;;;;;;11.30;5.13;;;;;;;10.47;62.41;93067.56;5057810;28;20056;-78
2022/11/13 16:01:57;;;;;;;11.77;5.25;;;;;;;10.32;63.09;93065.81;5067542;28;20102;-80
2022/11/13 16:04:41;;;;;;;28.90;12.60;;;;;;;10.20;62.69;93066.09;5053981;28;20052;-78
2022/11/13 16:07:28;;;;;;;30.20;12.05;;;;;;;10.11;62.81;93062.47;5081995;28;20099;-78
2022/11/13 16:10:13;;;;;;;12.30;6.13;;;;;;;9.94;63.12;93059.41;5066274;28;20048;-79
2022/11/13 16:12:57;;;;;;;6.45;3.10;;;;;;;9.88;63.29;93053.41;5062743;28;20071;-79
2022/11/13 16:15:41;;;;;;;7.75;3.55;;;;;;;9.74;64.69;93053.19;5056052;28;20087;-80
2022/11/13 16:18:28;;;;;;;10.20;3.92;;;;;;;9.67;65.14;93057.16;5062862;28;20103;-79
2022/11/13 16:21:13;;;;;;;13.32;6.85;;;;;;;9.56;66.29;93059.00;5063612;28;20087;-79
2022/11/13 16:23:57;;;;;;;9.27;5.00;;;;;;;9.53;66.16;93057.69;5060830;28;20075;-78
2022/11/13 16:26:49;;;;;;;9.65;4.55;;;;;;;9.52;66.17;93071.03;5044086;28;20063;-78
2022/11/13 16:29:33;;;;;;;11.38;5.00;;;;;;;9.46;66.90;93077.34;5061001;28;20056;-79
2022/11/13 16:32:18;;;;;;;12.05;5.22;;;;;;;9.41;67.19;93062.41;5037722;28;20086;-79
2022/11/13 16:35:02;;;;;;;11.98;5.50;;;;;;;9.37;68.08;93075.25;5060758;28;20043;-78